Overview Statistics Trail Chart Weather Telemetry Raw packets
 

This is the latest recevied weather packets stored in our database for station/object PY2WOA-13. If no packets are shown the sender has not sent any weather packets the latest 10 day(s).

<< 5 6 7 8 9 10 11 >>
Time Temp. Humidity Pressure Rain* Wind** Luminosity Snow
1788366904 32.22° C 33% 1015.6 hPa - - - -
1788365104 30° C 40% 1016.2 hPa - - - -
1788363304 31.67° C 39% 1016.1 hPa - - - -
1788361503 30° C 42% 1016.5 hPa - - - -
1788359703 28.89° C 44% 1016.8 hPa - - - -
1788357904 28.33° C 47% 1017.3 hPa - - - -
1788356104 26.67° C 51% 1017.7 hPa - - - -
1788354304 25° C 57% 1018.1 hPa - - - -
1788352504 23.33° C 61% 1018.4 hPa - - - -
1788350704 21.67° C 68% 1018.6 hPa - - - -
1788348904 20.56° C 74% 1018.7 hPa - - - -
1788347103 20° C 79% 1018.6 hPa - - - -
1788345304 18.89° C 86% 1018.5 hPa - - - -
1788343504 17.78° C 86% 1018.3 hPa - - - -
1788341704 17.22° C 86% 1017.8 hPa - - - -
1788339904 17.78° C 85% 1017.2 hPa - - - -
1788338104 17.78° C 84% 1016.8 hPa - - - -
1788336303 18.33° C 84% 1016.4 hPa - - - -
1788334503 18.33° C 85% 1016.4 hPa - - - -
1788332704 18.89° C 87% 1016.2 hPa - - - -
1788330904 18.89° C 87% 1016 hPa - - - -
1788329104 19.44° C 89% 1016 hPa - - - -
1788327304 19.44° C 93% 1015.9 hPa - - - -
1788325504 19.44° C 93% 1015.5 hPa - - - -
1788323703 18.89° C 91% 1015.5 hPa - - - -

* Rain since midnight (hover to see other rain measurements)
** Current wind speed in m/s (hover to see current wind gust speed)